This is the latest recevied weather packets stored in our database for station/object WD9GET. If no packets are shown the sender has not sent any weather packets the latest 10 day(s).
| Time | Temp. | Humidity | Pressure | Rain* | Wind** | Luminosity | Snow |
|---|---|---|---|---|---|---|---|
| 1778251711 | 20° C | 99% | 1011.8 hPa | 0 mm | - | 75 W/m² | - |
| 1778251636 | 20° C | 99% | 1011.8 hPa | 0 mm | - | 75 W/m² | - |
| 1778251559 | 20° C | 99% | 1011.7 hPa | 0 mm | - | 70 W/m² | - |
| 1778251491 | 20° C | 99% | 1011.7 hPa | 0 mm | - | 70 W/m² | - |
| 1778251426 | 20° C | 99% | 1011.7 hPa | 0 mm | - | 75 W/m² | - |
| 1778251351 | 20° C | 99% | 1011.8 hPa | 0 mm | - | 75 W/m² | - |
| 1778251276 | 20° C | 99% | 1011.8 hPa | 0 mm | - | 75 W/m² | - |
| 1778251176 | 20° C | 99% | 1011.8 hPa | 0 mm | - | 96 W/m² | - |
| 1778251111 | 20° C | 99% | 1011.8 hPa | 0 mm | - | 96 W/m² | - |
| 1778251052 | 20° C | 99% | 1011.7 hPa | 0 mm | - | 124 W/m² | - |
| 1778250991 | 20° C | 99% | 1011.7 hPa | 0 mm | - | 124 W/m² | - |
| 1778250931 | 20° C | 99% | 1011.6 hPa | 0 mm | - | 112 W/m² | - |
| 1778250876 | 20° C | 99% | 1011.6 hPa | 0 mm | - | 112 W/m² | - |
| 1778250781 | 20° C | 99% | 1011.9 hPa | 0 mm | - | 91 W/m² | - |
| 1778250721 | 20° C | 99% | 1011.9 hPa | 0 mm | - | 91 W/m² | - |
| 1778250662 | 20° C | 99% | 1011.9 hPa | 0 mm | - | 91 W/m² | - |
| 1778250601 | 20° C | 99% | 1012 hPa | 0 mm | - | 81 W/m² | - |
| 1778250527 | 20° C | 99% | 1012.1 hPa | 0 mm | - | 68 W/m² | - |
| 1778250467 | 20° C | 99% | 1012.1 hPa | 0 mm | - | 68 W/m² | - |
| 1778250376 | 20° C | 99% | 1012.1 hPa | 0 mm | - | 70 W/m² | - |
| 1778250327 | 20° C | 99% | 1012.1 hPa | 0 mm | - | 60 W/m² | - |
| 1778250321 | 20° C | 99% | 1012.2 hPa | 0 mm | - | 51 W/m² | - |
| 1778250197 | 20° C | 99% | 1012.2 hPa | 0 mm | - | 50 W/m² | - |
| 1778250137 | 20° C | 99% | 1012.2 hPa | 0 mm | - | 50 W/m² | - |
| 1778250077 | 20° C | 99% | 1012.3 hPa | 0 mm | - | 44 W/m² | - |
* Rain latest hour (hover to see other rain measurements)
** Current wind speed in m/s (hover to see current wind gust speed)